createdAt,value
2022-09-10T00:01:24.497Z,84.37
2022-09-10T00:03:52.206Z,84.30
2022-09-10T00:06:19.566Z,84.24
2022-09-10T00:08:47.777Z,84.11
2022-09-10T00:11:15.483Z,84.01
2022-09-10T00:13:43.773Z,84.15
2022-09-10T00:16:13.806Z,83.84
2022-09-10T00:18:41.750Z,83.48
2022-09-10T00:21:12.597Z,83.15
2022-09-10T00:23:39.774Z,83.23
2022-09-10T00:26:31.831Z,81.08
2022-09-10T00:29:02.512Z,82.05
2022-09-10T00:31:30.872Z,82.33
2022-09-10T00:34:00.036Z,82.26
2022-09-10T00:36:30.360Z,82.74
2022-09-10T00:39:00.778Z,82.42
2022-09-10T00:41:28.783Z,81.35
2022-09-10T00:43:58.778Z,80.93
2022-09-10T00:46:44.010Z,81.28
2022-09-10T00:49:22.442Z,82.09
2022-09-10T00:51:52.762Z,83.14
2022-09-10T00:54:22.162Z,83.58
2022-09-10T00:56:50.787Z,83.72
2022-09-10T00:59:20.535Z,83.13
2022-09-10T01:01:48.184Z,83.61
2022-09-10T01:04:15.778Z,84.04
2022-09-10T01:06:45.834Z,84.59
2022-09-10T01:09:14.687Z,84.97
2022-09-10T01:12:36.003Z,85.13
2022-09-10T01:15:31.164Z,84.92
2022-09-10T01:18:28.401Z,85.28
2022-09-10T01:21:21.252Z,85.57
2022-09-10T01:24:52.496Z,85.81
2022-09-10T01:27:47.763Z,85.69
2022-09-10T01:30:47.006Z,85.86
2022-09-10T01:33:41.966Z,84.29
2022-09-10T01:36:22.316Z,85.00
2022-09-10T01:38:51.764Z,85.37
2022-09-10T01:41:24.300Z,85.98
2022-09-10T01:43:51.510Z,86.40
2022-09-10T01:46:57.882Z,86.19
2022-09-10T01:50:00.702Z,86.20
2022-09-10T01:52:49.558Z,86.37
2022-09-10T01:55:50.004Z,86.21
2022-09-10T01:58:30.498Z,86.27
2022-09-10T02:01:38.719Z,86.33
2022-09-10T02:04:10.169Z,86.72
2022-09-10T02:06:40.174Z,86.51
2022-09-10T02:09:10.087Z,86.73
2022-09-10T02:11:47.504Z,86.79
2022-09-10T02:14:23.845Z,86.66
2022-09-10T02:17:09.392Z,87.40
2022-09-10T02:19:36.527Z,87.02
2022-09-10T02:22:04.246Z,86.35
2022-09-10T02:24:31.452Z,87.57
2022-09-10T02:26:59.010Z,88.51
2022-09-10T02:29:25.973Z,88.31
2022-09-10T02:31:53.182Z,88.78
2022-09-10T02:34:20.426Z,89.40
2022-09-10T02:36:49.734Z,89.41
2022-09-10T02:39:16.607Z,89.71
2022-09-10T02:41:44.822Z,89.33
2022-09-10T02:44:11.980Z,89.54
2022-09-10T02:46:38.911Z,89.46
2022-09-10T02:49:06.341Z,89.77
2022-09-10T02:51:41.976Z,88.49
2022-09-10T02:54:09.141Z,88.51
2022-09-10T02:56:36.744Z,89.18
2022-09-10T02:59:04.312Z,90.03
2022-09-10T03:01:32.871Z,89.94
2022-09-10T03:04:02.840Z,90.23
2022-09-10T03:06:31.031Z,89.61
2022-09-10T03:08:58.305Z,89.27
2022-09-10T03:11:27.690Z,89.35
2022-09-10T03:13:55.355Z,89.96
2022-09-10T03:16:24.509Z,90.58
2022-09-10T03:18:52.488Z,90.66
2022-09-10T03:21:22.470Z,90.80
2022-09-10T03:23:51.029Z,91.04
2022-09-10T03:26:25.607Z,91.51
2022-09-10T03:28:54.041Z,92.13
2022-09-10T03:31:23.718Z,89.07
2022-09-10T03:33:51.318Z,88.52
2022-09-10T03:36:21.035Z,89.82
2022-09-10T03:38:49.762Z,90.53
2022-09-10T03:41:16.810Z,90.43
2022-09-10T03:43:44.770Z,90.35
2022-09-10T03:46:15.955Z,90.72
2022-09-10T03:48:44.880Z,90.86
2022-09-10T03:51:12.029Z,90.55
2022-09-10T03:53:39.803Z,90.53
2022-09-10T03:56:08.820Z,90.16
2022-09-10T03:58:36.024Z,89.87
2022-09-10T04:01:04.213Z,89.93
2022-09-10T04:03:34.481Z,90.23
2022-09-10T04:06:01.533Z,90.25
2022-09-10T04:08:28.468Z,90.88
2022-09-10T04:10:57.215Z,91.47
2022-09-10T04:13:25.113Z,91.93
2022-09-10T04:15:53.490Z,92.94
2022-09-10T04:18:21.290Z,93.50
2022-09-10T04:20:48.720Z,93.36
2022-09-10T04:23:16.774Z,93.10
2022-09-10T04:25:44.723Z,92.95
2022-09-10T04:28:11.858Z,92.55
2022-09-10T04:30:40.453Z,92.61
2022-09-10T04:33:09.410Z,92.75
2022-09-10T04:35:36.336Z,93.08
2022-09-10T04:38:07.281Z,92.75
2022-09-10T04:40:37.071Z,92.80
2022-09-10T04:43:05.107Z,91.96
2022-09-10T04:45:36.181Z,92.20
2022-09-10T04:48:06.983Z,91.94
2022-09-10T04:50:35.806Z,91.74
2022-09-10T04:53:15.289Z,90.95
2022-09-10T04:55:45.741Z,89.94
2022-09-10T04:58:13.636Z,89.93
2022-09-10T05:00:42.486Z,89.88
2022-09-10T05:03:09.564Z,89.83
2022-09-10T05:05:38.246Z,90.75
2022-09-10T05:08:06.127Z,91.90
2022-09-10T05:10:33.724Z,92.34
2022-09-10T05:13:00.982Z,92.06
2022-09-10T05:15:28.691Z,92.28
2022-09-10T05:17:56.217Z,92.19
2022-09-10T05:20:23.393Z,92.50
2022-09-10T05:22:54.903Z,92.15
2022-09-10T05:25:23.684Z,92.57
2022-09-10T05:27:51.528Z,93.66
2022-09-10T05:30:21.063Z,94.74
2022-09-10T05:32:48.179Z,94.98
2022-09-10T05:35:16.177Z,95.13
2022-09-10T05:37:45.862Z,95.39
2022-09-10T05:40:15.104Z,95.21
2022-09-10T05:42:42.727Z,95.16
2022-09-10T05:45:10.640Z,95.22
2022-09-10T05:47:38.183Z,94.92
2022-09-10T05:50:07.281Z,94.63
2022-09-10T05:52:35.322Z,92.79
2022-09-10T05:55:06.612Z,91.98
2022-09-10T05:57:33.743Z,89.87
2022-09-10T06:00:01.755Z,87.32
2022-09-10T06:02:30.473Z,86.70
2022-09-10T06:05:00.769Z,85.58
2022-09-10T06:07:30.126Z,84.88
2022-09-10T06:09:57.845Z,83.79
2022-09-10T06:12:52.228Z,82.64
2022-09-10T06:15:21.227Z,82.25
2022-09-10T06:17:50.219Z,81.86
2022-09-10T06:20:20.384Z,81.33
2022-09-10T06:22:47.866Z,80.86
2022-09-10T06:25:15.010Z,80.67
2022-09-10T06:27:42.871Z,80.40
2022-09-10T06:30:11.740Z,79.55
2022-09-10T06:32:41.159Z,79.51
2022-09-10T06:35:09.755Z,78.21
2022-09-10T06:37:37.551Z,77.43
2022-09-10T06:40:07.845Z,76.91
2022-09-10T06:42:35.547Z,75.48
2022-09-10T06:45:20.286Z,76.34
2022-09-10T06:48:37.117Z,76.80
2022-09-10T06:50:57.215Z,76.67
2022-09-10T06:53:29.876Z,76.86
2022-09-10T06:56:00.402Z,76.48
2022-09-10T06:58:31.680Z,76.70
2022-09-10T07:00:59.204Z,76.28
2022-09-10T07:03:26.348Z,75.88
2022-09-10T07:05:55.802Z,75.53
2022-09-10T07:08:27.472Z,74.38
2022-09-10T07:11:04.957Z,73.91
2022-09-10T07:13:32.414Z,73.37
2022-09-10T07:16:00.876Z,72.71
2022-09-10T07:18:29.033Z,70.55
2022-09-10T07:21:07.348Z,70.60
2022-09-10T07:23:34.630Z,68.23
2022-09-10T07:26:06.899Z,66.68
2022-09-10T07:28:43.209Z,65.26
2022-09-10T07:31:21.889Z,65.31
2022-09-10T07:33:50.826Z,64.42
2022-09-10T07:36:18.497Z,63.29
2022-09-10T07:38:48.472Z,64.11
2022-09-10T07:41:15.563Z,63.86
2022-09-10T07:43:44.285Z,62.86
2022-09-10T07:46:20.618Z,62.60
2022-09-10T07:48:55.301Z,61.50
2022-09-10T07:51:23.572Z,60.33
2022-09-10T07:53:55.411Z,59.96
2022-09-10T07:56:23.676Z,59.59
2022-09-10T07:58:51.732Z,60.30
2022-09-10T08:01:20.319Z,60.73
2022-09-10T08:03:48.595Z,58.21
2022-09-10T08:06:19.645Z,58.80
2022-09-10T08:08:48.426Z,58.37
2022-09-10T08:11:18.392Z,59.14
2022-09-10T08:13:51.750Z,58.14
2022-09-10T08:16:24.113Z,58.15
2022-09-10T08:18:57.146Z,57.49
2022-09-10T08:21:25.917Z,56.35
2022-09-10T08:23:55.018Z,56.45
2022-09-10T08:26:24.604Z,55.67
2022-09-10T08:28:54.051Z,55.50
2022-09-10T08:31:22.296Z,55.77
2022-09-10T08:33:57.035Z,55.02
2022-09-10T08:36:26.496Z,54.15
2022-09-10T08:38:59.834Z,55.18
2022-09-10T08:42:00.707Z,54.15
2022-09-10T08:44:52.658Z,54.02
2022-09-10T08:47:47.875Z,53.63
2022-09-10T08:50:48.932Z,53.36
2022-09-10T08:53:55.902Z,52.87
2022-09-10T08:56:24.585Z,52.53
2022-09-10T08:59:03.608Z,52.37
2022-09-10T09:01:40.589Z,52.73
2022-09-10T09:04:35.809Z,52.54
2022-09-10T09:07:15.485Z,52.48
2022-09-10T09:09:44.883Z,52.84
2022-09-10T09:12:38.109Z,52.64
2022-09-10T09:15:18.375Z,52.47
2022-09-10T09:18:17.619Z,51.88
2022-09-10T09:20:56.838Z,52.27
2022-09-10T09:23:33.368Z,51.79
2022-09-10T09:26:12.102Z,51.38
2022-09-10T09:28:56.731Z,49.94
2022-09-10T09:31:27.764Z,48.61
2022-09-10T09:34:04.977Z,48.80
2022-09-10T09:36:42.718Z,48.72
2022-09-10T09:39:38.987Z,47.36
2022-09-10T09:42:31.545Z,46.80
2022-09-10T09:45:19.215Z,46.30
2022-09-10T09:47:47.274Z,46.26
2022-09-10T09:50:14.607Z,45.72
2022-09-10T09:52:44.542Z,44.39
2022-09-10T09:55:43.928Z,44.44
2022-09-10T09:58:43.141Z,44.36
2022-09-10T10:01:17.613Z,44.49
2022-09-10T10:03:52.619Z,43.88
2022-09-10T10:06:24.852Z,42.45
2022-09-10T10:09:06.470Z,41.36
2022-09-10T10:11:55.251Z,41.44
2022-09-10T10:14:25.335Z,41.30
2022-09-10T10:16:56.239Z,41.61
2022-09-10T10:19:40.532Z,41.00
2022-09-10T10:22:21.156Z,40.33
2022-09-10T10:24:51.624Z,39.63
2022-09-10T10:27:41.601Z,39.37
2022-09-10T10:30:37.998Z,37.93
2022-09-10T10:33:05.303Z,38.14
2022-09-10T10:35:58.774Z,36.88
2022-09-10T10:38:48.270Z,37.80
2022-09-10T10:41:51.756Z,37.90
2022-09-10T10:44:37.434Z,38.03
2022-09-10T10:47:36.268Z,39.42
2022-09-10T10:50:24.133Z,41.01
2022-09-10T10:53:37.168Z,40.66
2022-09-10T10:56:37.410Z,41.62
2022-09-10T10:59:24.646Z,44.83
2022-09-10T11:01:58.106Z,51.32
2022-09-10T11:04:34.709Z,58.06
2022-09-10T11:07:08.921Z,66.79
2022-09-10T11:09:43.063Z,71.06
2022-09-10T11:12:20.674Z,75.32
2022-09-10T11:15:31.357Z,72.45
2022-09-10T11:18:06.080Z,75.72
2022-09-10T11:20:39.061Z,79.92
2022-09-10T11:23:39.633Z,81.95
2022-09-10T11:26:13.797Z,79.86
2022-09-10T11:28:56.888Z,80.83
2022-09-10T11:31:43.162Z,81.60
2022-09-10T11:34:33.087Z,82.83
2022-09-10T11:37:12.043Z,83.19
2022-09-10T11:39:45.553Z,83.88
2022-09-10T11:42:44.371Z,84.19
2022-09-10T11:45:36.400Z,85.17
2022-09-10T11:48:24.896Z,87.12
2022-09-10T11:51:07.048Z,89.85
2022-09-10T11:53:34.387Z,90.07
2022-09-10T11:57:14.889Z,92.41
2022-09-10T12:00:28.128Z,95.16
2022-09-10T12:03:31.591Z,97.13
2022-09-10T12:06:16.610Z,98.77
2022-09-10T12:09:20.781Z,99.81
2022-09-10T12:12:06.268Z,99.97
2022-09-10T12:14:33.543Z,100.00
2022-09-10T12:17:14.746Z,100.00
2022-09-10T12:19:48.336Z,100.00
2022-09-10T12:22:25.193Z,100.00
2022-09-10T12:25:34.768Z,100.00
2022-09-10T12:28:08.104Z,99.54
2022-09-10T12:30:59.006Z,99.80
2022-09-10T12:33:36.135Z,100.00
2022-09-10T12:36:03.854Z,99.33
2022-09-10T12:39:27.743Z,99.64
2022-09-10T12:42:02.463Z,98.65
2022-09-10T12:44:56.447Z,95.31
2022-09-10T12:47:40.503Z,94.67
2022-09-10T12:50:20.816Z,90.57
2022-09-10T12:53:23.612Z,83.61
2022-09-10T12:56:02.319Z,77.04
2022-09-10T12:58:59.318Z,67.80
2022-09-10T13:01:41.838Z,65.74
2022-09-10T13:04:27.107Z,64.64
2022-09-10T13:06:59.239Z,65.67
2022-09-10T13:09:31.272Z,66.34
2022-09-10T13:12:06.125Z,66.18
2022-09-10T13:14:45.492Z,69.47
2022-09-10T13:18:00.370Z,70.49
2022-09-10T13:20:34.704Z,72.74
2022-09-10T13:23:22.183Z,69.27
2022-09-10T13:25:51.503Z,71.55
2022-09-10T13:29:11.509Z,74.51
2022-09-10T13:31:45.269Z,74.88
2022-09-10T13:34:57.783Z,75.41
2022-09-10T13:37:55.522Z,78.31
2022-09-10T13:41:02.746Z,80.87
2022-09-10T13:44:07.038Z,81.99
2022-09-10T13:46:41.924Z,83.28
2022-09-10T13:49:19.681Z,84.35
2022-09-10T13:51:56.413Z,85.16
2022-09-10T13:54:34.999Z,86.24
2022-09-10T13:57:25.853Z,87.91
2022-09-10T14:00:01.340Z,88.55
2022-09-10T14:02:42.023Z,89.42
2022-09-10T14:05:44.736Z,90.12
2022-09-10T14:08:38.564Z,88.41
2022-09-10T14:11:25.241Z,86.00
2022-09-10T14:13:59.707Z,85.14
2022-09-10T14:16:35.994Z,80.96
2022-09-10T14:19:05.949Z,78.48
2022-09-10T14:21:33.441Z,76.78
2022-09-10T14:24:00.408Z,77.10
2022-09-10T14:26:30.416Z,79.84
2022-09-10T14:29:03.682Z,81.15
2022-09-10T14:31:34.464Z,82.90
2022-09-10T14:34:26.798Z,83.88
2022-09-10T14:36:53.783Z,84.41
2022-09-10T14:39:22.736Z,84.72
2022-09-10T14:42:07.581Z,85.57
2022-09-10T14:44:40.812Z,86.02
2022-09-10T14:47:22.927Z,85.74
2022-09-10T14:49:50.625Z,85.69
2022-09-10T14:52:18.099Z,84.23
2022-09-10T14:54:45.907Z,82.49
2022-09-10T14:57:16.536Z,80.94
2022-09-10T14:59:46.427Z,79.45
2022-09-10T15:02:27.131Z,79.30
2022-09-10T15:04:54.309Z,78.78
2022-09-10T15:07:23.913Z,80.41
2022-09-10T15:09:53.780Z,81.09
2022-09-10T15:12:28.114Z,78.81
2022-09-10T15:14:57.254Z,78.29
2022-09-10T15:17:24.209Z,76.47
2022-09-10T15:19:52.322Z,78.91
2022-09-10T15:22:24.970Z,79.45
2022-09-10T15:25:08.970Z,80.04
2022-09-10T15:27:36.446Z,79.24
2022-09-10T15:30:05.572Z,78.21
2022-09-10T15:32:32.484Z,79.15
2022-09-10T15:34:59.547Z,80.02
2022-09-10T15:37:27.186Z,79.13
2022-09-10T15:39:54.825Z,74.67
2022-09-10T15:42:21.793Z,77.48
2022-09-10T15:44:48.690Z,77.18
2022-09-10T15:47:15.756Z,70.56
2022-09-10T15:49:42.741Z,70.49
2022-09-10T15:52:10.360Z,70.05
2022-09-10T15:54:37.315Z,65.56
2022-09-10T15:57:04.370Z,56.08
2022-09-10T15:59:31.392Z,49.10
2022-09-10T16:02:09.975Z,43.37
2022-09-10T16:04:45.979Z,40.52
2022-09-10T16:07:14.525Z,39.15
2022-09-10T16:09:42.815Z,37.83
2022-09-10T16:12:10.293Z,36.71
2022-09-10T16:14:37.205Z,36.11
2022-09-10T16:17:10.692Z,37.85
2022-09-10T16:19:38.280Z,40.51
2022-09-10T16:22:06.013Z,41.15
2022-09-10T16:24:33.012Z,42.25
2022-09-10T16:27:00.206Z,44.92
2022-09-10T16:29:28.831Z,47.50
2022-09-10T16:31:56.824Z,50.92
2022-09-10T16:34:24.562Z,53.89
2022-09-10T16:36:51.814Z,56.03
2022-09-10T16:39:19.872Z,53.85
2022-09-10T16:41:48.756Z,52.15
2022-09-10T16:44:17.623Z,52.68
2022-09-10T16:46:45.000Z,54.24
2022-09-10T16:49:13.713Z,56.67
2022-09-10T16:51:42.511Z,59.62
2022-09-10T16:54:10.298Z,61.41
2022-09-10T16:56:45.213Z,62.80
2022-09-10T16:59:18.388Z,64.58
2022-09-10T17:01:48.323Z,65.88
2022-09-10T17:04:27.757Z,65.90
2022-09-10T17:06:57.550Z,68.20
2022-09-10T17:09:25.134Z,69.08
2022-09-10T17:11:52.836Z,69.31
2022-09-10T17:14:19.805Z,68.45
2022-09-10T17:16:48.224Z,70.45
2022-09-10T17:19:19.728Z,70.92
2022-09-10T17:21:51.389Z,72.45
2022-09-10T17:24:19.656Z,73.18
2022-09-10T17:26:46.889Z,73.64
2022-09-10T17:29:19.043Z,73.83
2022-09-10T17:31:47.341Z,74.08
2022-09-10T17:34:15.974Z,73.88
2022-09-10T17:36:45.547Z,74.58
2022-09-10T17:39:13.394Z,75.44
2022-09-10T17:41:40.820Z,76.31
2022-09-10T17:44:08.564Z,76.83
2022-09-10T17:46:36.349Z,77.62
2022-09-10T17:49:04.350Z,78.47
2022-09-10T17:51:33.670Z,80.13
2022-09-10T17:54:02.773Z,81.26
2022-09-10T17:56:30.506Z,82.33
2022-09-10T17:59:04.083Z,82.92
2022-09-10T18:01:39.277Z,83.77
2022-09-10T18:04:07.674Z,84.02
2022-09-10T18:06:37.868Z,84.26
2022-09-10T18:09:05.933Z,84.79
2022-09-10T18:11:36.922Z,85.86
2022-09-10T18:14:04.342Z,85.52
2022-09-10T18:16:33.123Z,86.24
2022-09-10T18:19:12.987Z,86.79
2022-09-10T18:21:42.266Z,87.25
2022-09-10T18:24:15.406Z,86.99
2022-09-10T18:26:44.980Z,87.03
2022-09-10T18:29:20.535Z,87.10
2022-09-10T18:31:51.385Z,87.78
2022-09-10T18:34:23.552Z,87.46
2022-09-10T18:36:57.864Z,87.36
2022-09-10T18:39:27.367Z,87.39
2022-09-10T18:41:55.116Z,85.22
2022-09-10T18:44:25.524Z,86.10
2022-09-10T18:46:53.162Z,85.28
2022-09-10T18:49:21.821Z,84.70
2022-09-10T18:51:49.246Z,85.82
2022-09-10T18:54:17.545Z,86.47
2022-09-10T18:56:45.505Z,87.46
2022-09-10T18:59:20.471Z,88.82
2022-09-10T19:01:49.258Z,88.46
2022-09-10T19:04:18.551Z,88.81
2022-09-10T19:06:47.583Z,90.41
2022-09-10T19:09:29.263Z,90.73
2022-09-10T19:11:57.472Z,92.60
2022-09-10T19:14:35.783Z,94.21
2022-09-10T19:17:03.293Z,95.55
2022-09-10T19:19:32.860Z,97.45
2022-09-10T19:22:07.288Z,99.05
2022-09-10T19:24:53.877Z,100.00
2022-09-10T19:27:22.042Z,100.00
2022-09-10T19:29:49.983Z,100.00
2022-09-10T19:32:17.246Z,100.00
2022-09-10T19:34:44.691Z,100.00
2022-09-10T19:37:11.694Z,100.00
2022-09-10T19:39:38.817Z,100.00
2022-09-10T19:42:06.940Z,100.00
2022-09-10T19:44:33.876Z,100.00
2022-09-10T19:47:01.046Z,100.00
2022-09-10T19:49:27.988Z,99.84
2022-09-10T19:51:54.889Z,98.34
2022-09-10T19:54:23.021Z,98.78
2022-09-10T19:56:50.176Z,97.23
2022-09-10T19:59:17.240Z,96.60
2022-09-10T20:01:46.179Z,97.98
2022-09-10T20:04:14.377Z,97.03
2022-09-10T20:06:42.816Z,96.68
2022-09-10T20:09:10.373Z,97.39
2022-09-10T20:11:38.272Z,98.17
2022-09-10T20:14:13.474Z,98.08
2022-09-10T20:16:43.137Z,98.71
2022-09-10T20:19:12.706Z,99.82
2022-09-10T20:21:39.648Z,100.00
2022-09-10T20:24:08.130Z,99.96
2022-09-10T20:26:41.287Z,100.00
2022-09-10T20:29:12.575Z,100.00
2022-09-10T20:31:41.336Z,100.00
2022-09-10T20:34:12.261Z,100.00
2022-09-10T20:36:39.434Z,100.00
2022-09-10T20:39:06.891Z,100.00
2022-09-10T20:41:34.163Z,100.00
2022-09-10T20:44:01.893Z,100.00
2022-09-10T20:46:31.066Z,100.00
2022-09-10T20:49:03.401Z,100.00
2022-09-10T20:51:32.866Z,100.00
2022-09-10T20:54:00.422Z,100.00
2022-09-10T20:56:27.944Z,100.00
2022-09-10T20:58:54.967Z,100.00
2022-09-10T21:01:24.921Z,100.00
2022-09-10T21:03:54.438Z,100.00
2022-09-10T21:06:24.802Z,100.00
2022-09-10T21:08:51.724Z,100.00
2022-09-10T21:11:20.831Z,99.85
2022-09-10T21:13:50.030Z,97.18
2022-09-10T21:16:19.624Z,94.84
2022-09-10T21:18:53.563Z,93.38
2022-09-10T21:21:23.245Z,95.12
2022-09-10T21:23:52.281Z,95.50
2022-09-10T21:26:21.794Z,95.98
2022-09-10T21:28:51.135Z,96.72
2022-09-10T21:31:18.096Z,95.66
2022-09-10T21:33:46.226Z,94.96
2022-09-10T21:36:16.579Z,94.31
2022-09-10T21:38:51.162Z,95.10
2022-09-10T21:41:23.069Z,95.44
2022-09-10T21:43:50.061Z,95.54
2022-09-10T21:46:17.003Z,97.18
2022-09-10T21:48:44.399Z,99.10
2022-09-10T21:51:16.290Z,99.54
2022-09-10T21:53:44.184Z,99.32
2022-09-10T21:56:16.027Z,99.34
2022-09-10T21:58:45.227Z,99.86
2022-09-10T22:01:18.853Z,100.00
2022-09-10T22:03:49.666Z,100.00
2022-09-10T22:06:23.245Z,100.00
2022-09-10T22:08:57.997Z,100.00
2022-09-10T22:11:30.877Z,100.00
2022-09-10T22:14:01.201Z,100.00
2022-09-10T22:16:31.394Z,100.00
2022-09-10T22:19:00.441Z,100.00
2022-09-10T22:21:28.052Z,99.90
2022-09-10T22:23:55.179Z,99.99
2022-09-10T22:26:25.122Z,99.41
2022-09-10T22:28:56.870Z,98.94
2022-09-10T22:31:25.544Z,98.63
2022-09-10T22:33:55.677Z,98.15
2022-09-10T22:36:26.671Z,94.03
2022-09-10T22:39:20.971Z,92.35
2022-09-10T22:41:49.139Z,92.12
2022-09-10T22:44:18.278Z,92.87
2022-09-10T22:46:45.543Z,93.93
2022-09-10T22:49:12.479Z,94.56
2022-09-10T22:51:41.228Z,95.97
2022-09-10T22:54:09.116Z,95.90
2022-09-10T22:56:36.507Z,96.42
2022-09-10T22:59:04.301Z,97.27
2022-09-10T23:01:35.619Z,98.24
2022-09-10T23:04:04.108Z,98.66
2022-09-10T23:06:32.712Z,98.87
2022-09-10T23:09:11.138Z,98.54
2022-09-10T23:11:39.153Z,98.04
2022-09-10T23:14:09.309Z,96.00
2022-09-10T23:16:42.360Z,94.26
2022-09-10T23:19:15.541Z,92.19
2022-09-10T23:21:44.843Z,92.84
2022-09-10T23:24:15.386Z,93.38
2022-09-10T23:26:43.541Z,93.73
2022-09-10T23:29:11.480Z,93.58
2022-09-10T23:31:39.787Z,93.62
2022-09-10T23:34:15.321Z,92.06
2022-09-10T23:36:44.494Z,89.97
2022-09-10T23:39:14.176Z,90.62
2022-09-10T23:41:42.145Z,89.95
2022-09-10T23:44:09.769Z,90.58
2022-09-10T23:46:36.969Z,91.63
2022-09-10T23:49:05.090Z,91.26
2022-09-10T23:51:32.146Z,91.58
2022-09-10T23:53:59.581Z,90.70
2022-09-10T23:56:28.656Z,90.51
2022-09-10T23:58:56.778Z,90.94
